< < Back
Terminal Aerodrome Forecast


Current Version              Previous Versions:   1  2  3  4  5  6  7  8  9  

Terminal Aerodrome Forecast

811
FTUS44 KMRX 031720
TAFCHA
TAF
KCHA 031720Z 0318/0418 01005KT P6SM FEW040 SCT200
     FM041300 03004KT P6SM SCT250=

Latest METAR

891
SAUS80 KWBC 050100
MTRCHA
METAR KCHA 050053Z 31004KT 10SM SCT055 SCT250 26/22 A3001 RMK AO2 SLP153
T02610217


USA.gov is the U.S. government's official web portal to all federal, state and local government web resources and services.